Time;durP1;ratioP1;P1;durP2;ratioP2;P2;SDS_P1;SDS_P2;PMS_P1;PMS_P2;Temp;Humidity;BMP_temperature;BMP_pressure;BME280_temperature;BME280_humidity;BME280_pressure;Samples;Min_cycle;Max_cycle;Signal;HPM_P1;HPM_P2
2022/11/01 00:01:40;;;;;;;1.08;1.02;;;1.90;94.80;;;;;;5039051;28;20029;-83
2022/11/01 00:04:07;;;;;;;0.68;0.57;;;1.90;95.00;;;;;;5036941;28;20500;-85
2022/11/01 00:06:34;;;;;;;0.93;0.70;;;1.90;95.10;;;;;;5036292;28;20032;-84
2022/11/01 00:09:00;;;;;;;1.03;0.73;;;2.00;94.90;;;;;;5038367;28;20033;-84
2022/11/01 00:11:29;;;;;;;1.13;0.90;;;2.00;94.70;;;;;;5036853;28;20261;-83
2022/11/01 00:13:55;;;;;;;1.33;0.73;;;2.00;94.30;;;;;;5040302;28;20029;-83
2022/11/01 00:16:21;;;;;;;0.77;0.57;;;2.00;94.10;;;;;;5040565;28;20056;-82
2022/11/01 00:18:47;;;;;;;1.95;0.60;;;2.00;93.70;;;;;;5043847;28;20037;-83
2022/11/01 00:21:14;;;;;;;1.10;0.52;;;2.00;93.40;;;;;;5040376;28;20394;-83
2022/11/01 00:23:40;;;;;;;0.52;0.52;;;2.00;93.10;;;;;;5038901;28;20068;-83
2022/11/01 00:26:07;;;;;;;0.73;0.60;;;2.00;93.30;;;;;;5037022;28;20025;-82
2022/11/01 00:28:33;;;;;;;0.30;0.30;;;1.90;93.40;;;;;;5034624;28;20722;-82
2022/11/01 00:31:00;;;;;;;1.77;0.95;;;2.00;93.60;;;;;;5035661;28;20100;-82
2022/11/01 00:33:26;;;;;;;1.33;0.70;;;1.90;93.50;;;;;;5034949;28;20025;-83
2022/11/01 00:35:52;;;;;;;2.05;0.93;;;1.90;93.70;;;;;;5065594;28;20255;-82
2022/11/01 00:38:18;;;;;;;0.95;0.60;;;1.80;93.90;;;;;;5044242;28;20037;-85
2022/11/01 00:40:44;;;;;;;0.80;0.80;;;1.80;94.20;;;;;;5035859;28;20048;-82
2022/11/01 00:43:11;;;;;;;0.93;0.52;;;1.80;94.20;;;;;;5037997;28;20036;-83
2022/11/01 00:45:37;;;;;;;0.93;0.67;;;1.80;94.00;;;;;;5041791;28;20071;-84
2022/11/01 00:48:03;;;;;;;0.77;0.60;;;1.80;94.00;;;;;;5053770;28;20021;-83
2022/11/01 00:50:29;;;;;;;1.00;0.70;;;1.80;94.00;;;;;;5037842;28;20025;-84
2022/11/01 00:52:55;;;;;;;0.85;0.63;;;1.90;94.20;;;;;;5034152;28;20040;-82
2022/11/01 00:55:21;;;;;;;0.90;0.57;;;1.90;94.00;;;;;;5034435;28;20021;-83
2022/11/01 00:57:47;;;;;;;0.85;0.75;;;1.90;93.90;;;;;;5038106;28;20026;-84
2022/11/01 01:00:14;;;;;;;0.82;0.68;;;1.80;93.90;;;;;;5036427;28;20082;-83
2022/11/01 01:02:40;;;;;;;0.55;0.55;;;1.80;94.10;;;;;;5035227;28;20105;-84
2022/11/01 01:05:07;;;;;;;1.20;0.75;;;1.80;94.20;;;;;;5034114;28;20100;-82
2022/11/01 01:07:34;;;;;;;2.42;0.75;;;1.70;93.70;;;;;;5032526;28;20030;-83
2022/11/01 01:10:01;;;;;;;0.57;0.57;;;1.70;93.90;;;;;;5041648;28;20037;-84
2022/11/01 01:12:27;;;;;;;1.25;0.73;;;1.70;93.60;;;;;;5053741;28;20033;-83
2022/11/01 01:14:53;;;;;;;1.13;0.65;;;1.70;93.60;;;;;;5033185;28;20021;-83
2022/11/01 01:17:19;;;;;;;1.52;0.90;;;1.60;93.70;;;;;;5033099;28;20025;-84
2022/11/01 01:19:44;;;;;;;1.02;0.95;;;1.60;93.90;;;;;;5034423;28;20017;-84
2022/11/01 01:22:11;;;;;;;1.10;0.80;;;1.60;94.10;;;;;;5033209;28;20033;-83
2022/11/01 01:24:37;;;;;;;1.20;1.10;;;1.60;94.20;;;;;;5034057;28;20551;-85
2022/11/01 01:27:03;;;;;;;0.95;0.90;;;1.60;94.00;;;;;;5033109;28;20140;-84
2022/11/01 01:29:29;;;;;;;1.25;0.70;;;1.60;93.70;;;;;;5033051;28;20041;-84
2022/11/01 01:31:55;;;;;;;1.67;0.77;;;1.70;93.80;;;;;;5034213;28;20021;-83
2022/11/01 01:34:21;;;;;;;0.55;0.47;;;1.70;93.80;;;;;;5033684;28;20087;-84
2022/11/01 01:36:50;;;;;;;0.98;0.77;;;1.70;93.50;;;;;;5034029;28;20040;-84
2022/11/01 01:39:16;;;;;;;1.20;0.90;;;1.70;93.40;;;;;;5033560;28;20032;-84
2022/11/01 01:41:56;;;;;;;0.73;0.70;;;1.70;93.50;;;;;;5026544;28;20089;-85
2022/11/01 01:44:43;;;;;;;0.85;0.70;;;1.70;93.50;;;;;;5034290;28;20025;-84
2022/11/01 01:47:25;;;;;;;0.93;0.70;;;1.70;93.60;;;;;;5032060;28;20029;-85
2022/11/01 01:50:03;;;;;;;3.58;1.20;;;1.70;93.60;;;;;;5033001;28;20013;-84
2022/11/01 01:52:33;;;;;;;0.80;0.70;;;1.70;93.70;;;;;;5032368;28;20447;-83
2022/11/01 01:55:04;;;;;;;2.03;1.23;;;1.70;93.50;;;;;;5033202;28;20131;-82
2022/11/01 01:57:30;;;;;;;2.10;0.95;;;1.70;93.40;;;;;;5032279;28;20018;-82
2022/11/01 01:59:56;;;;;;;1.63;1.05;;;1.70;93.50;;;;;;5033320;28;20033;-83
2022/11/01 02:02:23;;;;;;;1.00;0.90;;;1.60;93.50;;;;;;5029930;28;20053;-84
2022/11/01 02:04:59;;;;;;;1.58;0.90;;;1.60;93.50;;;;;;5033490;28;20053;-83
2022/11/01 02:07:25;;;;;;;1.17;0.70;;;1.50;93.70;;;;;;5041599;28;20021;-83
2022/11/01 02:09:53;;;;;;;1.45;1.35;;;1.50;93.80;;;;;;5042998;28;20092;-81
2022/11/01 02:12:18;;;;;;;;;;;1.50;94.00;;;;;;5033454;28;20030;-83
2022/11/01 02:14:45;;;;;;;1.23;0.85;;;1.60;94.00;;;;;;5031260;28;20263;-81
2022/11/01 02:17:31;;;;;;;0.68;0.68;;;1.50;94.00;;;;;;5031969;28;20053;-83
2022/11/01 02:20:00;;;;;;;1.45;0.77;;;1.50;94.00;;;;;;5032831;28;20487;-83
2022/11/01 02:22:57;;;;;;;1.63;1.00;;;1.50;94.10;;;;;;5033588;28;20028;-83
2022/11/01 02:25:49;;;;;;;1.13;0.80;;;1.50;94.10;;;;;;5035018;28;20411;-82
2022/11/01 02:28:35;;;;;;;2.78;1.02;;;1.50;94.20;;;;;;5032849;28;20029;-82
2022/11/01 02:31:27;;;;;;;1.38;1.00;;;1.60;93.70;;;;;;5029902;28;20506;-81
2022/11/01 02:34:06;;;;;;;3.65;1.08;;;1.50;93.60;;;;;;5033517;28;20033;-80
2022/11/01 02:36:57;;;;;;;3.97;1.13;;;1.50;93.60;;;;;;5034349;28;20029;-81
2022/11/01 02:39:28;;;;;;;2.05;0.77;;;1.50;93.20;;;;;;5025041;28;20033;-82
2022/11/01 02:42:01;;;;;;;0.63;0.52;;;1.40;93.10;;;;;;5034236;28;20057;-81
2022/11/01 02:44:34;;;;;;;2.35;1.05;;;1.40;93.00;;;;;;5049406;28;20037;-83
2022/11/01 02:47:02;;;;;;;1.85;0.88;;;1.40;93.10;;;;;;5043894;28;20022;-82
2022/11/01 02:49:29;;;;;;;;;;;1.40;93.00;;;;;;5038284;28;20029;-82
2022/11/01 02:51:57;;;;;;;1.17;0.90;;;1.40;92.90;;;;;;5036930;28;19917;-83
2022/11/01 02:54:30;;;;;;;1.95;1.00;;;1.40;93.00;;;;;;5047412;28;20097;-83
2022/11/01 02:57:02;;;;;;;1.55;0.88;;;1.40;93.20;;;;;;5036937;28;20048;-83
2022/11/01 02:59:29;;;;;;;2.42;1.00;;;1.40;93.30;;;;;;5033244;28;20355;-82
2022/11/01 03:02:03;;;;;;;1.50;0.60;;;1.40;93.50;;;;;;5030546;28;20025;-83
2022/11/01 03:04:29;;;;;;;2.08;0.82;;;1.40;93.40;;;;;;5032256;28;20057;-82
2022/11/01 03:07:00;;;;;;;1.90;1.00;;;1.40;93.40;;;;;;5030062;28;20533;-82
2022/11/01 03:09:27;;;;;;;1.08;0.75;;;1.40;93.50;;;;;;5029945;28;20485;-83
2022/11/01 03:12:15;;;;;;;2.08;0.88;;;1.40;93.60;;;;;;5023350;28;20069;-82
2022/11/01 03:15:23;;;;;;;1.10;0.70;;;1.40;93.70;;;;;;5030871;28;20021;-81
2022/11/01 03:18:03;;;;;;;0.88;0.52;;;1.40;93.70;;;;;;5010510;28;20061;-84
2022/11/01 03:20:47;;;;;;;1.30;0.57;;;1.40;93.50;;;;;;5010232;28;20034;-83
2022/11/01 03:23:27;;;;;;;0.88;0.70;;;1.30;93.20;;;;;;5010206;28;20141;-86
2022/11/01 03:25:56;;;;;;;0.90;0.65;;;1.30;93.20;;;;;;5012364;28;20052;-85
2022/11/01 03:28:32;;;;;;;1.20;0.95;;;1.20;93.20;;;;;;5013764;28;20403;-85
2022/11/01 03:31:12;;;;;;;1.35;1.02;;;1.20;93.30;;;;;;5014275;28;20460;-83
2022/11/01 03:33:51;;;;;;;1.35;0.82;;;1.20;93.30;;;;;;5013210;28;20042;-84
2022/11/01 03:36:21;;;;;;;3.00;1.02;;;1.20;93.40;;;;;;5014439;28;20588;-85
2022/11/01 03:39:03;;;;;;;3.08;1.02;;;1.20;93.50;;;;;;5002879;28;20073;-84
2022/11/01 03:41:35;;;;;;;4.53;1.88;;;1.30;93.70;;;;;;5007067;28;20341;-84
2022/11/01 03:44:02;;;;;;;1.35;0.80;;;1.30;93.80;;;;;;4993904;28;20451;-83
2022/11/01 03:46:28;;;;;;;4.00;1.35;;;1.40;93.70;;;;;;4978234;28;20484;-83
2022/11/01 03:48:54;;;;;;;8.10;1.90;;;1.30;93.70;;;;;;4994380;28;20433;-83
2022/11/01 03:51:20;;;;;;;3.78;1.58;;;1.40;93.70;;;;;;5009086;28;20072;-85
2022/11/01 03:53:45;;;;;;;3.08;1.83;;;1.40;93.80;;;;;;5041042;28;20025;-83
2022/11/01 03:56:11;;;;;;;1.85;1.45;;;1.30;93.80;;;;;;5034746;28;20018;-84
2022/11/01 03:58:44;;;;;;;2.72;1.75;;;1.30;93.70;;;;;;5036344;28;20052;-84
2022/11/01 04:01:13;;;;;;;2.72;1.60;;;1.30;93.70;;;;;;5030147;28;20024;-82
2022/11/01 04:03:42;;;;;;;3.05;1.80;;;1.30;93.60;;;;;;5035146;28;20099;-82
2022/11/01 04:06:08;;;;;;;3.80;2.35;;;1.30;93.70;;;;;;5036635;28;20029;-83
2022/11/01 04:08:35;;;;;;;3.80;1.48;;;1.30;93.80;;;;;;5035135;28;20139;-83
2022/11/01 04:11:01;;;;;;;5.57;2.25;;;1.30;93.80;;;;;;5035006;28;20410;-83
2022/11/01 04:13:27;;;;;;;3.55;2.13;;;1.30;93.80;;;;;;5028049;28;20108;-82
2022/11/01 04:21:24;;;;;;;1.83;1.52;;;1.40;93.70;;;;;;5035055;28;20036;-82
2022/11/01 04:23:50;;;;;;;3.35;1.70;;;1.40;93.50;;;;;;5034750;28;20037;-84
2022/11/01 04:26:21;;;;;;;2.33;1.58;;;1.30;93.30;;;;;;5033763;28;20124;-83
2022/11/01 04:28:55;;;;;;;4.07;2.67;;;1.30;93.00;;;;;;5035060;28;20036;-85
2022/11/01 04:31:34;;;;;;;2.30;2.00;;;1.20;93.10;;;;;;5035129;28;20129;-86
2022/11/01 04:34:02;;;;;;;4.68;2.50;;;1.20;93.20;;;;;;5035352;28;20021;-84
2022/11/01 04:36:28;;;;;;;4.95;3.33;;;1.20;93.20;;;;;;5046136;28;20036;-82
2022/11/01 04:38:56;;;;;;;3.17;2.35;;;1.10;93.30;;;;;;5046258;28;20043;-81
2022/11/01 04:41:23;;;;;;;2.67;2.30;;;1.20;93.40;;;;;;5052554;28;20029;-84
2022/11/01 04:43:52;;;;;;;4.32;2.22;;;1.20;93.40;;;;;;5033971;28;20034;-83
2022/11/01 04:46:18;;;;;;;3.47;2.58;;;1.20;93.40;;;;;;5033846;28;20029;-83
2022/11/01 04:48:44;;;;;;;4.00;2.50;;;1.20;93.50;;;;;;5035439;28;20021;-84
2022/11/01 04:51:10;;;;;;;6.07;2.95;;;1.20;93.60;;;;;;5032733;28;20084;-83
2022/11/01 04:53:36;;;;;;;6.10;2.75;;;1.30;93.60;;;;;;5035260;28;20080;-80
2022/11/01 04:56:04;;;;;;;6.45;2.78;;;1.30;93.30;;;;;;5032295;28;20110;-82
2022/11/01 04:58:30;;;;;;;4.97;2.50;;;1.30;93.20;;;;;;5034432;28;20032;-81
2022/11/01 05:00:57;;;;;;;4.22;2.78;;;1.30;93.10;;;;;;5032683;28;20024;-82
2022/11/01 05:03:23;;;;;;;5.45;2.22;;;1.20;93.10;;;;;;5033056;28;20529;-82
2022/11/01 05:05:49;;;;;;;4.97;3.33;;;1.30;93.20;;;;;;5034399;28;20057;-81
2022/11/01 05:08:14;;;;;;;3.80;2.88;;;1.30;93.10;;;;;;5030108;28;20075;-83
2022/11/01 05:10:43;;;;;;;6.32;1.67;;;1.30;93.10;;;;;;5040916;28;20022;-83
2022/11/01 05:13:11;;;;;;;2.60;1.90;;;1.30;93.00;;;;;;5041332;28;20459;-83
2022/11/01 05:15:36;;;;;;;;;;;1.30;93.00;;;;;;5034711;28;20064;-83
2022/11/01 05:18:03;;;;;;;3.42;1.90;;;1.30;93.10;;;;;;5032011;28;20355;-82
2022/11/01 05:20:29;;;;;;;3.10;2.07;;;1.30;93.10;;;;;;5035066;28;20456;-83
2022/11/01 05:23:03;;;;;;;2.70;2.03;;;1.30;93.20;;;;;;5032861;28;20063;-83
2022/11/01 05:25:30;;;;;;;5.20;2.25;;;1.30;93.20;;;;;;5035971;28;20071;-84
2022/11/01 05:28:07;;;;;;;5.60;2.93;;;1.30;93.30;;;;;;5036347;28;20390;-83
2022/11/01 05:30:33;;;;;;;;;;;1.40;93.40;;;;;;5034614;28;20760;-82
2022/11/01 05:33:01;;;;;;;2.93;1.50;;;1.40;93.40;;;;;;5034328;28;19916;-82
2022/11/01 05:35:28;;;;;;;2.92;2.05;;;1.40;93.20;;;;;;5035049;28;20058;-81
2022/11/01 05:37:54;;;;;;;4.32;1.60;;;1.40;93.20;;;;;;5036427;28;20033;-84
2022/11/01 05:40:20;;;;;;;2.45;1.50;;;1.40;93.20;;;;;;5033719;28;20025;-82
2022/11/01 05:42:46;;;;;;;3.00;1.75;;;1.40;93.20;;;;;;5023316;28;20022;-84
2022/11/01 05:45:12;;;;;;;3.45;2.65;;;1.50;93.30;;;;;;5030205;28;20033;-83
2022/11/01 05:47:42;;;;;;;7.47;2.15;;;1.50;93.30;;;;;;5032666;28;20605;-84
2022/11/01 05:50:10;;;;;;;2.30;1.80;;;1.60;93.40;;;;;;5033296;28;20076;-85
2022/11/01 05:52:36;;;;;;;6.20;1.60;;;1.60;93.20;;;;;;5034237;28;20056;-84
2022/11/01 05:55:03;;;;;;;5.55;2.50;;;1.60;93.10;;;;;;5041585;28;20021;-83
2022/11/01 05:57:30;;;;;;;2.63;1.80;;;1.60;93.20;;;;;;5051722;28;20577;-85
2022/11/01 05:59:56;;;;;;;5.32;2.97;;;1.60;93.20;;;;;;5044839;28;20376;-84
2022/11/01 06:02:22;;;;;;;5.25;2.10;;;1.60;93.40;;;;;;5040567;28;20089;-82
2022/11/01 06:04:49;;;;;;;2.10;1.48;;;1.60;93.30;;;;;;5054749;28;20061;-86
2022/11/01 06:07:15;;;;;;;5.43;2.33;;;1.70;93.30;;;;;;5040114;28;20427;-82
2022/11/01 06:09:40;;;;;;;3.92;1.92;;;1.70;93.20;;;;;;5037329;28;20067;-83
2022/11/01 06:12:06;;;;;;;4.25;1.90;;;1.70;93.20;;;;;;5036413;28;20071;-84
2022/11/01 06:14:32;;;;;;;2.78;2.10;;;1.70;93.20;;;;;;5034812;28;20395;-83
2022/11/01 06:16:58;;;;;;;4.15;2.13;;;1.70;93.30;;;;;;5036853;28;20103;-86
2022/11/01 06:19:24;;;;;;;10.98;1.80;;;1.70;93.30;;;;;;5039352;28;20453;-86
2022/11/01 06:21:50;;;;;;;4.63;2.05;;;1.80;93.30;;;;;;5036596;28;20009;-85
2022/11/01 06:24:16;;;;;;;3.13;1.95;;;1.80;93.40;;;;;;5051372;28;20101;-85
2022/11/01 06:26:42;;;;;;;3.85;2.13;;;1.80;93.40;;;;;;5040716;28;20031;-83
2022/11/01 06:29:08;;;;;;;2.58;1.52;;;1.80;93.30;;;;;;5038399;28;20108;-84
2022/11/01 06:31:34;;;;;;;6.88;2.38;;;1.90;93.30;;;;;;5044792;28;20096;-85
2022/11/01 06:34:00;;;;;;;3.88;1.63;;;2.00;93.30;;;;;;5038892;28;20076;-83
2022/11/01 06:36:25;;;;;;;2.38;1.88;;;2.00;93.00;;;;;;5050816;28;20043;-83
2022/11/01 06:38:51;;;;;;;4.93;2.45;;;2.00;92.90;;;;;;5041468;28;20033;-83
2022/11/01 06:41:20;;;;;;;3.40;2.17;;;2.00;92.90;;;;;;5041448;28;20041;-84
2022/11/01 06:43:49;;;;;;;4.45;2.03;;;2.00;92.90;;;;;;5037501;28;20097;-83
2022/11/01 06:46:15;;;;;;;4.65;2.17;;;2.10;93.00;;;;;;5037400;28;20021;-83
2022/11/01 06:48:41;;;;;;;3.60;2.03;;;2.10;93.00;;;;;;5030219;28;20091;-82
2022/11/01 06:51:07;;;;;;;4.60;2.65;;;2.10;92.90;;;;;;5050644;28;20042;-83
2022/11/01 06:53:33;;;;;;;2.95;2.08;;;2.10;92.90;;;;;;5036628;28;20820;-84
2022/11/01 06:55:59;;;;;;;5.93;2.70;;;2.10;92.90;;;;;;5020616;28;20029;-84
2022/11/01 06:58:26;;;;;;;3.13;1.87;;;2.10;92.80;;;;;;5027761;28;20049;-87
2022/11/01 07:00:53;;;;;;;2.35;1.85;;;2.10;92.70;;;;;;5040814;28;20033;-90
2022/11/01 07:03:19;;;;;;;2.00;1.45;;;2.10;92.70;;;;;;5030192;28;20117;-87
2022/11/01 07:05:48;;;;;;;3.10;1.97;;;2.10;92.60;;;;;;5031580;28;20036;-88
2022/11/01 07:08:17;;;;;;;4.40;2.95;;;2.00;92.50;;;;;;5044968;28;20037;-91
2022/11/01 07:10:43;;;;;;;1.92;1.35;;;2.00;92.60;;;;;;5047471;28;20083;-86
2022/11/01 07:13:12;;;;;;;2.72;1.98;;;2.00;92.60;;;;;;5030275;28;20115;-83
2022/11/01 07:15:38;;;;;;;;;;;2.00;92.60;;;;;;5045505;28;20025;-85
2022/11/01 07:18:07;;;;;;;4.65;1.67;;;2.00;92.60;;;;;;5044209;28;19948;-85
2022/11/01 07:20:40;;;;;;;2.17;1.50;;;2.10;92.70;;;;;;5043753;28;20025;-83
2022/11/01 07:23:10;;;;;;;4.35;1.85;;;2.10;92.60;;;;;;5042816;28;20056;-85
2022/11/01 07:25:39;;;;;;;3.65;1.80;;;2.10;92.70;;;;;;5039468;28;20028;-86
2022/11/01 07:28:05;;;;;;;4.57;2.10;;;2.10;92.70;;;;;;5025012;28;20523;-87
2022/11/01 07:30:31;;;;;;;2.25;2.03;;;2.20;92.50;;;;;;5040596;28;20025;-85
2022/11/01 07:33:02;;;;;;;3.05;1.65;;;2.20;92.50;;;;;;5044741;28;20026;-86
2022/11/01 07:35:29;;;;;;;3.58;1.75;;;2.20;92.30;;;;;;5046486;28;20034;-85
2022/11/01 07:38:00;;;;;;;2.33;1.60;;;2.20;92.30;;;;;;5054553;28;20021;-87
2022/11/01 07:40:27;;;;;;;6.43;2.28;;;2.20;92.40;;;;;;5028472;28;20176;-87
2022/11/01 07:42:57;;;;;;;4.15;1.85;;;2.20;92.10;;;;;;5045942;28;20080;-85
2022/11/01 07:45:24;;;;;;;5.50;2.38;;;2.20;92.10;;;;;;5045644;28;20103;-82
2022/11/01 07:47:50;;;;;;;6.55;2.55;;;2.30;92.20;;;;;;5049188;28;20072;-86
2022/11/01 07:50:17;;;;;;;2.63;1.73;;;2.30;92.20;;;;;;5050284;28;20029;-83
2022/11/01 07:52:43;;;;;;;5.57;1.45;;;2.30;92.10;;;;;;5060669;28;20101;-86
2022/11/01 07:55:09;;;;;;;4.20;2.60;;;2.30;92.10;;;;;;5060621;28;20021;-85
2022/11/01 07:57:40;;;;;;;4.45;1.90;;;2.30;92.20;;;;;;5061382;28;20071;-86
2022/11/01 08:00:10;;;;;;;5.25;2.50;;;2.30;92.10;;;;;;5057661;28;20079;-85
2022/11/01 08:02:36;;;;;;;3.92;1.70;;;2.30;92.10;;;;;;5056503;28;20048;-86
2022/11/01 08:05:02;;;;;;;3.88;2.10;;;2.30;92.10;;;;;;5060391;28;20029;-85
2022/11/01 08:07:36;;;;;;;4.43;2.10;;;2.40;92.10;;;;;;5056475;28;20057;-86
2022/11/01 08:10:05;;;;;;;6.28;1.92;;;2.50;92.10;;;;;;5056516;28;20036;-86
2022/11/01 08:12:31;;;;;;;7.47;2.03;;;2.50;92.00;;;;;;5040983;28;20041;-88
2022/11/01 08:14:57;;;;;;;4.03;2.00;;;2.60;92.00;;;;;;5052684;28;20029;-87
2022/11/01 08:17:22;;;;;;;5.30;1.90;;;2.70;91.60;;;;;;5026357;28;20040;-84
2022/11/01 08:19:48;;;;;;;4.80;3.25;;;2.70;91.70;;;;;;5043083;28;20093;-85
2022/11/01 08:22:14;;;;;;;6.57;1.98;;;2.60;91.70;;;;;;5045829;28;20036;-85
2022/11/01 08:24:40;;;;;;;3.60;1.88;;;2.60;91.80;;;;;;5044660;28;20041;-82
2022/11/01 08:27:06;;;;;;;3.72;2.17;;;2.70;91.80;;;;;;5040987;28;20568;-83
2022/11/01 08:29:33;;;;;;;5.82;2.45;;;2.60;91.80;;;;;;5047952;28;20075;-81
2022/11/01 08:31:58;;;;;;;6.53;2.28;;;2.60;92.00;;;;;;5054840;28;20021;-81
2022/11/01 08:34:24;;;;;;;5.97;2.30;;;2.70;92.00;;;;;;5048613;28;20033;-82
2022/11/01 08:36:50;;;;;;;4.45;2.10;;;2.80;92.00;;;;;;5042518;28;20360;-86
2022/11/01 08:39:16;;;;;;;4.20;2.70;;;2.80;91.80;;;;;;5038088;28;20029;-83
2022/11/01 08:41:42;;;;;;;5.72;2.20;;;2.70;91.70;;;;;;5040954;28;20025;-84
2022/11/01 08:44:09;;;;;;;12.90;3.08;;;2.70;91.80;;;;;;5023215;28;20040;-84
2022/11/01 08:46:35;;;;;;;6.30;2.58;;;2.80;91.90;;;;;;5023908;28;20116;-84
2022/11/01 08:49:01;;;;;;;4.75;2.60;;;2.80;91.80;;;;;;5022222;28;20022;-83
2022/11/01 08:51:27;;;;;;;4.35;1.90;;;2.90;92.10;;;;;;5041618;28;20060;-83
2022/11/01 08:53:56;;;;;;;6.88;2.45;;;2.90;91.50;;;;;;5038639;28;20477;-86
2022/11/01 08:56:27;;;;;;;2.22;1.77;;;2.90;91.10;;;;;;5040682;28;20025;-85
2022/11/01 08:58:54;;;;;;;9.90;2.20;;;2.90;90.90;;;;;;5037891;28;20108;-81
2022/11/01 09:01:28;;;;;;;2.63;1.80;;;2.80;90.60;;;;;;5037453;28;20026;-88
2022/11/01 09:03:58;;;;;;;4.90;2.40;;;2.90;90.90;;;;;;5041084;28;20390;-85
2022/11/01 09:06:26;;;;;;;3.72;2.08;;;3.00;90.60;;;;;;5052504;28;20109;-84
2022/11/01 09:08:54;;;;;;;5.22;2.22;;;3.00;90.60;;;;;;5038246;28;20494;-84
2022/11/01 09:11:22;;;;;;;6.60;3.47;;;3.10;90.90;;;;;;5039163;28;20028;-83
2022/11/01 09:13:49;;;;;;;6.28;2.72;;;3.30;90.80;;;;;;5038668;28;20061;-84
2022/11/01 09:16:15;;;;;;;6.03;2.83;;;3.60;90.40;;;;;;5055855;28;20080;-85
2022/11/01 09:18:42;;;;;;;5.65;2.70;;;3.70;90.00;;;;;;5041271;28;20022;-84
2022/11/01 09:21:08;;;;;;;8.55;3.40;;;3.70;89.00;;;;;;5041694;28;20063;-84
2022/11/01 09:23:34;;;;;;;7.15;2.50;;;3.60;89.20;;;;;;5038843;28;20033;-85
2022/11/01 09:26:02;;;;;;;7.10;2.58;;;3.60;89.40;;;;;;5038721;28;20045;-84
2022/11/01 09:28:30;;;;;;;6.97;2.60;;;3.50;89.60;;;;;;5040469;28;20457;-86
2022/11/01 09:30:59;;;;;;;5.50;2.28;;;3.40;89.40;;;;;;5042823;28;20117;-85
2022/11/01 09:33:25;;;;;;;4.78;2.65;;;3.40;89.50;;;;;;5041904;28;20025;-85
2022/11/01 09:35:52;;;;;;;6.70;2.50;;;3.40;89.60;;;;;;5040922;28;20435;-84
2022/11/01 09:38:18;;;;;;;4.72;3.08;;;3.60;90.00;;;;;;5039215;28;20083;-85
2022/11/01 09:40:48;;;;;;;5.85;2.65;;;3.60;89.10;;;;;;5039324;28;20113;-82
2022/11/01 09:43:20;;;;;;;4.90;2.40;;;3.50;88.60;;;;;;5040623;28;20060;-84
2022/11/01 09:45:50;;;;;;;4.13;2.78;;;3.50;89.10;;;;;;5045381;28;20019;-84
2022/11/01 09:48:17;;;;;;;3.97;2.30;;;3.40;89.40;;;;;;5050048;28;20045;-86
2022/11/01 09:50:43;;;;;;;6.83;3.83;;;3.30;89.80;;;;;;5030973;28;20109;-86
2022/11/01 09:53:20;;;;;;;4.50;2.13;;;3.30;90.10;;;;;;5049987;28;20279;-90
2022/11/01 09:55:55;;;;;;;2.75;1.90;;;3.30;90.00;;;;;;5042558;28;20031;-88
2022/11/01 09:58:46;;;;;;;4.85;2.88;;;3.20;89.70;;;;;;5040326;28;20029;-88
2022/11/01 10:01:27;;;;;;;5.63;2.25;;;3.10;89.80;;;;;;5040400;28;20026;-85
2022/11/01 10:04:05;;;;;;;4.95;1.92;;;3.10;89.50;;;;;;5043850;28;20108;-91
2022/11/01 10:06:38;;;;;;;7.82;2.60;;;3.10;89.00;;;;;;5040766;28;20018;-86
2022/11/01 10:09:25;;;;;;;7.30;2.80;;;3.10;89.60;;;;;;5040353;28;20025;-85
2022/11/01 10:12:02;;;;;;;3.75;1.90;;;3.20;89.20;;;;;;5038337;28;20542;-85
2022/11/01 10:14:43;;;;;;;3.38;2.25;;;3.30;88.20;;;;;;5038951;28;20022;-85
2022/11/01 10:17:13;;;;;;;3.00;1.80;;;3.20;88.20;;;;;;5039874;28;20036;-86
2022/11/01 10:19:48;;;;;;;3.47;1.90;;;3.10;89.10;;;;;;5039153;28;20025;-86
2022/11/01 10:22:28;;;;;;;6.32;2.17;;;3.10;89.00;;;;;;5040212;28;20032;-85
2022/11/01 10:25:03;;;;;;;3.53;2.35;;;3.10;89.00;;;;;;5045237;28;20049;-84
2022/11/01 10:28:05;;;;;;;6.18;2.58;;;3.20;88.60;;;;;;5057038;28;20037;-83
2022/11/01 10:30:39;;;;;;;5.13;2.90;;;3.20;88.90;;;;;;5041329;28;20052;-84
2022/11/01 10:33:19;;;;;;;9.73;3.50;;;3.30;88.90;;;;;;5038593;28;20109;-84
2022/11/01 10:35:55;;;;;;;3.72;2.80;;;3.40;88.90;;;;;;5041625;28;20088;-84
2022/11/01 10:38:36;;;;;;;3.38;2.25;;;3.50;88.90;;;;;;5028563;28;20021;-84
2022/11/01 10:41:22;;;;;;;7.30;2.38;;;3.50;88.00;;;;;;5039591;28;20024;-87
2022/11/01 10:43:55;;;;;;;2.00;1.75;;;3.50;87.50;;;;;;5036517;28;20056;-84
2022/11/01 10:46:34;;;;;;;4.10;2.10;;;3.50;87.30;;;;;;5039587;28;20084;-87
2022/11/01 10:49:03;;;;;;;4.25;2.40;;;3.40;87.20;;;;;;5039122;28;20027;-89
2022/11/01 10:51:32;;;;;;;4.93;2.08;;;3.30;87.00;;;;;;5044384;28;20041;-92
2022/11/01 10:54:02;;;;;;;5.28;3.33;;;3.10;87.60;;;;;;5033116;28;20026;-84
2022/11/01 10:56:43;;;;;;;8.70;2.70;;;3.00;88.10;;;;;;5040384;28;20096;-85
2022/11/01 10:59:28;;;;;;;7.97;2.72;;;2.90;88.60;;;;;;5038865;28;20017;-90
2022/11/01 11:01:55;;;;;;;5.47;2.38;;;2.90;89.60;;;;;;5026987;28;20120;-86
2022/11/01 11:04:22;;;;;;;;;;;2.90;89.30;;;;;;5037670;28;20528;-89
2022/11/01 11:06:50;;;;;;;6.72;2.40;;;2.80;89.20;;;;;;5037428;28;19944;-83
2022/11/01 11:09:35;;;;;;;4.40;2.58;;;2.80;89.20;;;;;;5040893;28;20026;-88
2022/11/01 11:12:18;;;;;;;3.30;2.25;;;2.70;89.40;;;;;;5043644;28;20018;-90
2022/11/01 11:14:48;;;;;;;34.55;4.45;;;2.70;89.60;;;;;;5040312;28;20022;-86
2022/11/01 11:17:21;;;;;;;12.70;2.90;;;2.70;89.90;;;;;;5039732;28;20009;-88
2022/11/01 11:19:55;;;;;;;5.70;2.58;;;2.70;90.10;;;;;;5040386;28;20014;-88
2022/11/01 11:22:22;;;;;;;8.68;2.83;;;2.80;90.00;;;;;;5040090;28;20040;-86
2022/11/01 11:24:50;;;;;;;3.33;2.22;;;2.70;90.00;;;;;;5039000;28;20030;-83
2022/11/01 11:27:24;;;;;;;6.45;2.45;;;2.80;89.90;;;;;;5042045;28;20088;-91
2022/11/01 11:29:54;;;;;;;5.85;2.90;;;2.80;89.80;;;;;;5039670;28;20049;-86
2022/11/01 11:32:23;;;;;;;3.78;2.55;;;2.80;90.00;;;;;;5038651;28;20391;-88
2022/11/01 11:35:05;;;;;;;5.88;2.78;;;2.80;90.00;;;;;;5041638;28;20067;-88
2022/11/01 11:37:33;;;;;;;6.15;2.65;;;2.90;90.00;;;;;;5052008;28;20026;-86
2022/11/01 11:40:44;;;;;;;4.43;2.90;;;2.90;89.80;;;;;;5041744;28;20021;-86
2022/11/01 11:43:21;;;;;;;3.20;2.13;;;2.90;89.40;;;;;;5029004;28;20048;-87
2022/11/01 11:46:07;;;;;;;5.70;2.10;;;2.80;89.40;;;;;;5036595;28;20029;-86
2022/11/01 11:48:44;;;;;;;5.30;2.78;;;2.80;89.50;;;;;;5036564;28;20074;-87
2022/11/01 11:51:10;;;;;;;5.70;2.53;;;2.80;89.40;;;;;;5042116;28;20072;-87
2022/11/01 11:53:39;;;;;;;6.35;2.38;;;2.80;89.40;;;;;;5045595;28;20030;-85
2022/11/01 11:56:07;;;;;;;5.43;2.75;;;2.80;89.90;;;;;;5048082;28;20068;-86
2022/11/01 11:58:41;;;;;;;9.98;3.15;;;2.90;89.80;;;;;;5043871;28;20022;-87
2022/11/01 12:01:14;;;;;;;7.53;3.38;;;2.90;89.70;;;;;;5045733;28;20075;-88
2022/11/01 12:04:04;;;;;;;7.95;2.60;;;3.00;89.90;;;;;;5044624;28;20501;-86
2022/11/01 12:06:36;;;;;;;3.80;2.40;;;3.10;89.50;;;;;;5047589;28;20025;-84
2022/11/01 12:09:02;;;;;;;6.75;2.78;;;3.00;88.80;;;;;;5053880;28;20024;-88
2022/11/01 12:11:45;;;;;;;4.95;3.13;;;2.90;89.10;;;;;;5050402;28;20029;-88
2022/11/01 12:14:21;;;;;;;4.20;2.78;;;2.90;89.20;;;;;;5050210;28;20033;-89
2022/11/01 12:16:49;;;;;;;3.28;2.58;;;2.80;89.30;;;;;;5036574;28;20017;-89
2022/11/01 12:19:41;;;;;;;;;;;2.70;89.40;;;;;;5049033;28;20018;-83
2022/11/01 12:22:09;;;;;;;5.85;2.45;;;2.70;89.50;;;;;;5046774;28;19905;-91
2022/11/01 12:24:49;;;;;;;7.82;2.83;;;2.60;89.20;;;;;;5056786;28;20108;-88
2022/11/01 12:27:20;;;;;;;4.20;2.78;;;2.60;89.50;;;;;;5039986;28;20057;-83
2022/11/01 12:30:04;;;;;;;2.65;1.88;;;2.60;89.20;;;;;;5037162;28;20048;-82
2022/11/01 12:32:43;;;;;;;3.55;1.90;;;2.60;89.20;;;;;;5037882;28;20018;-84
2022/11/01 12:35:24;;;;;;;5.07;2.25;;;2.60;89.60;;;;;;5036809;28;20018;-82
2022/11/01 12:38:10;;;;;;;4.20;1.70;;;2.50;89.80;;;;;;5038599;28;20028;-83
2022/11/01 12:40:39;;;;;;;4.35;2.10;;;2.40;90.00;;;;;;5039413;28;20021;-82
2022/11/01 12:49:24;;;;;;;4.78;1.67;;;2.40;90.00;;;;;;5752354;23;20045;-85
2022/11/01 12:51:53;;;;;;;7.57;1.77;;;2.50;90.10;;;;;;5029942;28;20026;-84
2022/11/01 12:54:28;;;;;;;5.28;2.53;;;2.40;90.00;;;;;;5022793;28;20022;-85
2022/11/01 12:56:55;;;;;;;5.72;2.42;;;2.50;90.10;;;;;;5038600;28;20630;-84
2022/11/01 12:59:26;;;;;;;;;;;2.50;90.10;;;;;;5020949;28;20057;-84
2022/11/01 13:02:14;;;;;;;5.32;3.25;;;2.50;90.10;;;;;;5019347;28;19905;-86
2022/11/01 13:04:51;;;;;;;4.78;2.50;;;2.50;90.20;;;;;;5029696;28;20038;-86
2022/11/01 13:07:50;;;;;;;5.95;2.53;;;2.50;90.20;;;;;;5027561;28;20061;-85
2022/11/01 13:10:39;;;;;;;6.10;2.88;;;2.50;90.30;;;;;;5040952;28;20077;-83
2022/11/01 13:13:30;;;;;;;9.07;3.05;;;2.50;90.30;;;;;;5023238;28;20040;-85
2022/11/01 13:16:13;;;;;;;6.25;3.58;;;2.40;90.40;;;;;;5038311;28;20028;-87
2022/11/01 13:19:00;;;;;;;7.15;3.72;;;2.50;90.40;;;;;;5026444;28;20033;-88
2022/11/01 13:21:49;;;;;;;7.03;3.78;;;2.50;90.20;;;;;;5044489;28;20025;-89
2022/11/01 13:24:36;;;;;;;6.05;4.70;;;2.50;90.40;;;;;;5033758;28;20548;-87
2022/11/01 13:27:26;;;;;;;4.97;3.50;;;2.50;90.40;;;;;;5031134;28;20017;-85
2022/11/01 13:30:10;;;;;;;6.10;2.58;;;2.40;90.20;;;;;;5028403;28;20061;-84
2022/11/01 13:33:09;;;;;;;4.53;3.72;;;2.40;90.30;;;;;;5021378;28;20025;-86